Terminal Aerodrome Forecast
Issued by NWS Northern Indiana

Home | Current Version | Previous Version | Graphics & Text | Print | Product List | Glossary On
Versions: 1 2 3 4 5 6 7 8 9 10 11 12 13 14 15 16
000
FTUS43 KIWX 311900 AAA
TAFFWA
TAF AMD
KFWA 311922Z 3119/0118 24009KT P6SM BKN040
     FM010700 20005KT 3SM BR BKN015
     FM011500 21015G23KT P6SM BKN040=

USA.gov is the U.S. government's official web portal to all federal, state and local government web resources and services.